createdAt,value
2023-02-12T00:02:05.647Z,91.88
2023-02-12T00:05:11.644Z,93.58
2023-02-12T00:08:17.854Z,94.25
2023-02-12T00:11:25.869Z,92.86
2023-02-12T00:14:34.702Z,92.97
2023-02-12T00:17:40.905Z,91.95
2023-02-12T00:20:47.322Z,93.69
2023-02-12T00:23:53.736Z,90.53
2023-02-12T00:27:00.210Z,95.12
2023-02-12T00:30:09.239Z,93.85
2023-02-12T00:33:15.340Z,92.12
2023-02-12T00:36:24.515Z,89.75
2023-02-12T00:39:30.734Z,94.97
2023-02-12T00:42:37.211Z,92.42
2023-02-12T00:45:46.056Z,90.51
2023-02-12T00:48:52.670Z,91.52
2023-02-12T00:51:59.046Z,91.49
2023-02-12T00:55:06.187Z,95.57
2023-02-12T00:58:12.584Z,95.99
2023-02-12T01:01:20.469Z,96.58
2023-02-12T01:04:26.849Z,96.79
2023-02-12T01:07:33.389Z,97.56
2023-02-12T01:10:39.774Z,95.91
2023-02-12T01:13:46.283Z,95.82
2023-02-12T01:16:54.198Z,95.51
2023-02-12T01:20:00.954Z,95.60
2023-02-12T01:23:08.635Z,90.84
2023-02-12T01:26:16.375Z,90.84
2023-02-12T01:29:22.473Z,91.90
2023-02-12T01:32:30.203Z,90.04
2023-02-12T01:35:38.426Z,90.26
2023-02-12T01:38:45.068Z,90.21
2023-02-12T01:41:51.337Z,90.15
2023-02-12T01:45:41.251Z,90.79
2023-02-12T01:48:49.844Z,88.84
2023-02-12T01:51:59.526Z,91.35
2023-02-12T01:55:08.755Z,88.88
2023-02-12T01:58:16.096Z,87.77
2023-02-12T02:01:25.905Z,92.13
2023-02-12T02:04:38.623Z,93.51
2023-02-12T02:07:45.669Z,92.30
2023-02-12T02:10:52.431Z,94.66
2023-02-12T02:14:16.571Z,95.35
2023-02-12T02:17:36.176Z,94.18
2023-02-12T02:21:19.445Z,93.29
2023-02-12T02:24:49.069Z,94.04
2023-02-12T02:28:08.174Z,96.21
2023-02-12T02:31:18.991Z,97.56
2023-02-12T02:34:34.245Z,99.06
2023-02-12T02:37:47.389Z,100.00
2023-02-12T02:40:57.811Z,98.82
2023-02-12T02:44:09.130Z,95.42
2023-02-12T02:47:20.327Z,96.36
2023-02-12T02:50:30.584Z,94.25
2023-02-12T02:53:40.901Z,92.81
2023-02-12T02:56:51.935Z,93.24
2023-02-12T03:00:05.315Z,93.77
2023-02-12T03:03:21.256Z,96.90
2023-02-12T03:06:31.890Z,100.00
2023-02-12T03:09:41.308Z,100.00
2023-02-12T03:12:53.367Z,100.00
2023-02-12T03:16:03.970Z,100.00
2023-02-12T03:19:19.324Z,100.00
2023-02-12T03:22:32.744Z,100.00
2023-02-12T03:25:45.868Z,100.00
2023-02-12T03:28:52.946Z,99.49
2023-02-12T03:32:15.497Z,100.00
2023-02-12T03:35:27.608Z,100.00
2023-02-12T03:38:38.875Z,100.00
2023-02-12T03:41:49.406Z,100.00
2023-02-12T03:45:01.113Z,100.00
2023-02-12T03:48:12.656Z,100.00
2023-02-12T03:51:25.205Z,100.00
2023-02-12T03:54:32.024Z,100.00
2023-02-12T03:57:42.524Z,100.00
2023-02-12T04:00:49.374Z,100.00
2023-02-12T04:03:55.578Z,100.00
2023-02-12T04:07:03.486Z,100.00
2023-02-12T04:10:10.864Z,100.00
2023-02-12T04:13:22.685Z,100.00
2023-02-12T04:16:36.931Z,100.00
2023-02-12T04:19:56.765Z,99.98
2023-02-12T04:23:13.188Z,100.00
2023-02-12T04:26:26.296Z,99.83
2023-02-12T04:29:44.414Z,100.00
2023-02-12T04:32:55.224Z,100.00
2023-02-12T04:36:04.577Z,100.00
2023-02-12T04:39:17.633Z,100.00
2023-02-12T04:42:24.510Z,100.00
2023-02-12T04:45:33.186Z,100.00
2023-02-12T04:48:54.646Z,99.54
2023-02-12T04:52:00.981Z,97.60
2023-02-12T04:55:09.367Z,97.91
2023-02-12T04:58:15.592Z,96.52
2023-02-12T05:04:46.374Z,97.84
2023-02-12T05:07:52.775Z,100.00
2023-02-12T05:11:05.622Z,97.58
2023-02-12T05:14:12.566Z,100.00
2023-02-12T05:17:18.577Z,100.00
2023-02-12T05:20:24.964Z,99.82
2023-02-12T05:23:33.087Z,98.86
2023-02-12T05:26:41.088Z,96.32
2023-02-12T05:29:47.305Z,95.30
2023-02-12T05:32:53.608Z,96.43
2023-02-12T05:36:05.644Z,96.11
2023-02-12T05:39:12.519Z,95.17
2023-02-12T05:42:20.036Z,92.59
2023-02-12T05:45:28.142Z,95.17
2023-02-12T05:48:35.474Z,96.36
2023-02-12T05:51:41.989Z,94.45
2023-02-12T05:54:50.875Z,93.74
2023-02-12T05:57:58.846Z,91.75
2023-02-12T06:01:10.317Z,92.03
2023-02-12T06:04:17.880Z,93.95
2023-02-12T06:07:24.417Z,92.83
2023-02-12T06:10:30.328Z,90.47
2023-02-12T06:13:37.985Z,88.83
2023-02-12T06:16:47.931Z,89.83
2023-02-12T06:19:54.063Z,89.84
2023-02-12T06:23:00.317Z,90.22
2023-02-12T06:26:06.397Z,89.25
2023-02-12T06:29:14.577Z,88.28
2023-02-12T06:32:21.103Z,86.97
2023-02-12T06:35:27.480Z,89.23
2023-02-12T06:38:36.544Z,88.04
2023-02-12T06:41:44.090Z,89.18
2023-02-12T06:44:53.047Z,88.71
2023-02-12T06:47:59.670Z,87.04
2023-02-12T06:51:08.129Z,87.87
2023-02-12T06:54:16.093Z,87.70
2023-02-12T06:57:23.022Z,86.67
2023-02-12T07:00:30.625Z,88.09
2023-02-12T07:03:37.096Z,88.50
2023-02-12T07:06:42.970Z,89.10
2023-02-12T07:09:49.273Z,86.44
2023-02-12T07:12:55.868Z,84.48
2023-02-12T07:16:07.105Z,83.87
2023-02-12T07:19:16.810Z,86.09
2023-02-12T07:22:23.178Z,85.35
2023-02-12T07:25:29.486Z,84.09
2023-02-12T07:28:36.248Z,83.67
2023-02-12T07:31:45.046Z,84.02
2023-02-12T07:34:51.284Z,82.85
2023-02-12T07:37:57.378Z,81.54
2023-02-12T07:41:12.310Z,80.96
2023-02-12T07:44:19.036Z,80.93
2023-02-12T07:47:26.778Z,80.69
2023-02-12T07:50:33.245Z,79.65
2023-02-12T07:53:39.716Z,79.69
2023-02-12T07:56:47.721Z,80.78
2023-02-12T07:59:54.367Z,81.57
2023-02-12T08:03:01.832Z,80.23
2023-02-12T08:06:12.575Z,79.69
2023-02-12T08:09:20.845Z,79.68
2023-02-12T08:12:27.382Z,79.16
2023-02-12T08:15:33.577Z,79.69
2023-02-12T08:18:41.560Z,79.26
2023-02-12T08:21:51.523Z,77.56
2023-02-12T08:24:58.130Z,73.60
2023-02-12T08:28:04.756Z,73.47
2023-02-12T08:31:12.717Z,72.51
2023-02-12T08:34:22.142Z,68.40
2023-02-12T08:37:28.209Z,68.03
2023-02-12T08:40:34.918Z,65.35
2023-02-12T08:43:42.456Z,63.25
2023-02-12T08:46:50.399Z,59.93
2023-02-12T08:49:57.980Z,57.30
2023-02-12T08:53:04.520Z,56.29
2023-02-12T08:56:11.820Z,57.28
2023-02-12T08:59:18.700Z,56.45
2023-02-12T09:02:25.030Z,56.52
2023-02-12T09:05:32.511Z,56.67
2023-02-12T09:08:39.823Z,55.82
2023-02-12T09:11:45.966Z,55.88
2023-02-12T09:14:52.240Z,54.82
2023-02-12T09:17:58.301Z,53.74
2023-02-12T09:21:08.136Z,54.85
2023-02-12T09:24:14.290Z,55.59
2023-02-12T09:27:20.785Z,52.76
2023-02-12T09:30:27.100Z,51.50
2023-02-12T09:33:33.779Z,49.86
2023-02-12T09:36:41.322Z,49.94
2023-02-12T09:39:50.167Z,50.15
2023-02-12T09:43:08.050Z,52.56
2023-02-12T09:46:21.933Z,51.81
2023-02-12T09:49:49.788Z,51.20
2023-02-12T09:52:59.270Z,50.57
2023-02-12T09:56:12.965Z,48.99
2023-02-12T09:59:30.087Z,48.36
2023-02-12T10:02:37.412Z,48.49
2023-02-12T10:05:49.389Z,47.48
2023-02-12T10:09:04.119Z,47.74
2023-02-12T10:12:17.718Z,48.66
2023-02-12T10:15:38.781Z,50.96
2023-02-12T10:19:00.904Z,51.60
2023-02-12T10:22:21.553Z,50.86
2023-02-12T10:25:37.924Z,50.92
2023-02-12T10:28:44.979Z,51.38
2023-02-12T10:35:13.644Z,53.45
2023-02-12T10:38:23.691Z,52.86
2023-02-12T10:41:33.372Z,53.48
2023-02-12T10:44:39.661Z,52.27
2023-02-12T10:47:47.357Z,52.99
2023-02-12T10:51:07.529Z,52.32
2023-02-12T10:54:45.032Z,53.14
2023-02-12T10:57:52.910Z,54.05
2023-02-12T11:01:00.899Z,54.80
2023-02-12T11:04:22.736Z,56.13
2023-02-12T11:07:30.154Z,55.35
2023-02-12T11:10:39.948Z,54.41
2023-02-12T11:13:54.993Z,54.17
2023-02-12T11:17:02.830Z,53.57
2023-02-12T11:20:23.599Z,55.25
2023-02-12T11:23:31.796Z,54.75
2023-02-12T11:26:37.729Z,54.70
2023-02-12T11:29:48.881Z,55.35
2023-02-12T11:32:55.211Z,55.34
2023-02-12T11:36:07.057Z,56.67
2023-02-12T11:39:23.055Z,54.97
2023-02-12T11:42:34.738Z,55.86
2023-02-12T11:45:47.970Z,55.03
2023-02-12T11:48:56.803Z,56.07
2023-02-12T11:52:04.949Z,56.91
2023-02-12T11:55:23.411Z,54.78
2023-02-12T11:58:30.724Z,54.78
2023-02-12T12:01:41.922Z,55.75
2023-02-12T12:04:53.141Z,56.51
2023-02-12T12:08:03.708Z,56.30
2023-02-12T12:11:17.935Z,56.75
2023-02-12T12:14:30.396Z,56.88
2023-02-12T12:18:02.992Z,57.10
2023-02-12T12:21:14.858Z,54.63
2023-02-12T12:24:25.936Z,55.59
2023-02-12T12:27:55.010Z,56.96
2023-02-12T12:31:08.123Z,59.22
2023-02-12T12:34:18.224Z,57.29
2023-02-12T12:37:34.485Z,55.77
2023-02-12T12:40:51.379Z,55.85
2023-02-12T12:44:08.495Z,55.03
2023-02-12T12:47:25.684Z,55.39
2023-02-12T12:50:53.226Z,55.41
2023-02-12T12:54:13.840Z,55.06
2023-02-12T12:57:33.681Z,53.66
2023-02-12T13:00:58.088Z,54.11
2023-02-12T13:04:33.882Z,53.44
2023-02-12T13:07:52.060Z,53.26
2023-02-12T13:11:04.709Z,52.76
2023-02-12T13:14:28.885Z,52.47
2023-02-12T13:17:46.068Z,53.07
2023-02-12T13:21:01.272Z,52.49
2023-02-12T13:24:22.424Z,51.92
2023-02-12T13:27:34.251Z,53.25
2023-02-12T13:30:46.485Z,53.08
2023-02-12T13:33:56.172Z,52.72
2023-02-12T13:37:04.020Z,52.19
2023-02-12T13:40:18.703Z,51.95
2023-02-12T13:43:37.830Z,52.54
2023-02-12T13:46:54.716Z,52.54
2023-02-12T13:50:08.444Z,51.21
2023-02-12T13:53:24.092Z,51.70
2023-02-12T13:56:41.729Z,51.68
2023-02-12T13:59:50.161Z,52.13
2023-02-12T14:02:57.046Z,51.67
2023-02-12T14:06:16.724Z,52.33
2023-02-12T14:09:34.174Z,53.28
2023-02-12T14:12:43.086Z,55.78
2023-02-12T14:15:52.768Z,59.51
2023-02-12T14:19:32.419Z,57.85
2023-02-12T14:23:02.826Z,60.43
2023-02-12T14:26:13.079Z,63.72
2023-02-12T14:29:22.080Z,64.72
2023-02-12T14:32:58.358Z,66.09
2023-02-12T14:36:17.613Z,68.43
2023-02-12T14:39:31.169Z,68.13
2023-02-12T14:42:45.218Z,69.83
2023-02-12T14:45:52.863Z,69.85
2023-02-12T14:49:05.017Z,69.51
2023-02-12T14:52:17.938Z,70.84
2023-02-12T14:55:28.731Z,72.57
2023-02-12T14:58:35.068Z,70.96
2023-02-12T15:01:44.129Z,73.44
2023-02-12T15:04:52.992Z,71.99
2023-02-12T15:08:01.987Z,71.46
2023-02-12T15:11:21.421Z,73.70
2023-02-12T15:14:32.246Z,73.16
2023-02-12T15:17:43.671Z,72.28
2023-02-12T15:20:56.123Z,72.57
2023-02-12T15:24:11.194Z,72.98
2023-02-12T15:27:18.475Z,73.92
2023-02-12T15:30:27.886Z,75.75
2023-02-12T15:33:37.157Z,76.38
2023-02-12T15:36:47.450Z,75.16
2023-02-12T15:39:57.270Z,77.19
2023-02-12T15:43:05.578Z,78.28
2023-02-12T15:46:19.090Z,76.80
2023-02-12T15:49:32.379Z,77.12
2023-02-12T15:52:41.370Z,77.16
2023-02-12T15:55:50.420Z,76.84
2023-02-12T15:58:59.108Z,77.74
2023-02-12T16:02:05.846Z,78.83
2023-02-12T16:05:17.963Z,80.13
2023-02-12T16:08:25.569Z,79.49
2023-02-12T16:11:33.454Z,77.90
2023-02-12T16:14:44.819Z,80.99
2023-02-12T16:17:51.089Z,80.23
2023-02-12T16:21:07.795Z,81.98
2023-02-12T16:24:26.737Z,78.23
2023-02-12T16:27:35.275Z,77.73
2023-02-12T16:30:44.307Z,80.55
2023-02-12T16:33:53.396Z,82.02
2023-02-12T16:37:01.219Z,81.23
2023-02-12T16:40:31.011Z,80.50
2023-02-12T16:43:36.998Z,79.03
2023-02-12T16:46:48.103Z,79.20
2023-02-12T16:49:57.940Z,80.82
2023-02-12T16:53:06.933Z,82.63
2023-02-12T16:56:18.355Z,80.77
2023-02-12T16:59:24.969Z,82.42
2023-02-12T17:02:31.241Z,84.37
2023-02-12T17:05:37.768Z,85.42
2023-02-12T17:08:45.662Z,83.30
2023-02-12T17:11:51.878Z,86.42
2023-02-12T17:14:57.890Z,87.47
2023-02-12T17:18:04.142Z,86.38
2023-02-12T17:21:19.732Z,81.88
2023-02-12T17:24:29.521Z,79.32
2023-02-12T17:27:38.077Z,76.22
2023-02-12T17:30:45.013Z,78.14
2023-02-12T17:33:51.195Z,79.20
2023-02-12T17:36:57.497Z,76.57
2023-02-12T17:40:05.228Z,74.56
2023-02-12T17:43:11.741Z,75.89
2023-02-12T17:46:22.001Z,74.94
2023-02-12T17:49:28.437Z,75.62
2023-02-12T17:52:34.739Z,77.04
2023-02-12T17:55:42.729Z,77.31
2023-02-12T17:58:50.582Z,74.90
2023-02-12T18:01:57.213Z,73.96
2023-02-12T18:05:03.364Z,74.16
2023-02-12T18:08:10.305Z,73.31
2023-02-12T18:11:19.145Z,72.18
2023-02-12T18:14:25.612Z,72.39
2023-02-12T18:17:31.974Z,75.49
2023-02-12T18:20:40.615Z,72.04
2023-02-12T18:23:46.739Z,71.50
2023-02-12T18:26:54.427Z,70.93
2023-02-12T18:30:00.708Z,72.18
2023-02-12T18:33:07.445Z,73.67
2023-02-12T18:36:15.853Z,76.41
2023-02-12T18:39:22.300Z,75.92
2023-02-12T18:42:30.307Z,74.87
2023-02-12T18:45:36.810Z,75.97
2023-02-12T18:48:43.619Z,74.83
2023-02-12T18:51:49.944Z,78.07
2023-02-12T18:54:56.362Z,78.20
2023-02-12T18:58:03.937Z,77.94
2023-02-12T19:01:14.898Z,78.46
2023-02-12T19:04:24.399Z,80.29
2023-02-12T19:07:30.573Z,78.90
2023-02-12T19:10:40.063Z,79.87
2023-02-12T19:13:47.626Z,81.12
2023-02-12T19:16:54.617Z,80.58
2023-02-12T19:20:00.969Z,82.72
2023-02-12T19:23:07.358Z,81.41
2023-02-12T19:26:15.678Z,80.04
2023-02-12T19:29:23.256Z,81.35
2023-02-12T19:32:29.888Z,83.11
2023-02-12T19:35:36.343Z,82.60
2023-02-12T19:38:43.316Z,87.21
2023-02-12T19:41:50.561Z,84.13
2023-02-12T19:44:58.621Z,87.93
2023-02-12T19:48:05.199Z,87.64
2023-02-12T19:51:15.151Z,88.22
2023-02-12T19:54:22.919Z,87.43
2023-02-12T19:57:29.259Z,85.63
2023-02-12T20:00:37.062Z,81.36
2023-02-12T20:03:43.592Z,84.15
2023-02-12T20:06:51.103Z,88.88
2023-02-12T20:09:57.328Z,86.65
2023-02-12T20:13:03.656Z,88.58
2023-02-12T20:16:13.645Z,89.43
2023-02-12T20:19:23.009Z,87.05
2023-02-12T20:22:29.419Z,88.21
2023-02-12T20:25:35.743Z,91.12
2023-02-12T20:28:43.023Z,90.74
2023-02-12T20:31:51.003Z,90.87
2023-02-12T20:34:57.610Z,90.98
2023-02-12T20:38:04.321Z,92.94
2023-02-12T20:41:11.924Z,92.02
2023-02-12T20:44:20.296Z,94.60
2023-02-12T20:47:29.615Z,94.05
2023-02-12T20:50:36.074Z,93.25
2023-02-12T20:53:43.689Z,90.82
2023-02-12T20:56:51.759Z,93.25
2023-02-12T20:59:58.199Z,94.85
2023-02-12T21:03:06.185Z,93.57
2023-02-12T21:06:13.280Z,95.25
2023-02-12T21:09:20.049Z,95.12
2023-02-12T21:12:26.566Z,95.33
2023-02-12T21:15:33.244Z,94.90
2023-02-12T21:18:41.181Z,93.76
2023-02-12T21:21:48.118Z,93.72
2023-02-12T21:24:54.583Z,94.43
2023-02-12T21:28:00.871Z,94.84
2023-02-12T21:31:08.701Z,96.28
2023-02-12T21:34:18.043Z,98.70
2023-02-12T21:37:24.334Z,97.73
2023-02-12T21:40:30.562Z,95.99
2023-02-12T21:43:37.288Z,97.02
2023-02-12T21:46:44.350Z,97.57
2023-02-12T21:49:52.184Z,96.71
2023-02-12T21:52:59.114Z,98.08
2023-02-12T21:56:06.225Z,97.94
2023-02-12T21:59:12.940Z,98.61
2023-02-12T22:02:19.317Z,98.24
2023-02-12T22:05:26.727Z,100.00
2023-02-12T22:08:33.032Z,100.00
2023-02-12T22:11:40.810Z,99.80
2023-02-12T22:14:47.173Z,100.00
2023-02-12T22:17:53.580Z,100.00
2023-02-12T22:21:03.047Z,100.00
2023-02-12T22:24:12.543Z,100.00
2023-02-12T22:27:18.534Z,100.00
2023-02-12T22:30:24.665Z,100.00
2023-02-12T22:33:30.728Z,100.00
2023-02-12T22:36:39.588Z,100.00
2023-02-12T22:39:45.627Z,100.00
2023-02-12T22:42:51.527Z,100.00
2023-02-12T22:45:58.000Z,100.00
2023-02-12T22:49:04.559Z,100.00
2023-02-12T22:52:12.517Z,100.00
2023-02-12T22:55:19.042Z,100.00
2023-02-12T22:58:25.532Z,100.00
2023-02-12T23:01:32.356Z,100.00
2023-02-12T23:04:38.763Z,100.00
2023-02-12T23:07:46.697Z,100.00
2023-02-12T23:10:52.939Z,100.00
2023-02-12T23:13:59.740Z,100.00
2023-02-12T23:17:05.863Z,100.00
2023-02-12T23:20:13.580Z,100.00
2023-02-12T23:23:21.844Z,100.00
2023-02-12T23:26:28.787Z,100.00
2023-02-12T23:29:35.994Z,100.00
2023-02-12T23:32:42.423Z,100.00
2023-02-12T23:35:49.632Z,100.00
2023-02-12T23:38:57.458Z,100.00
2023-02-12T23:42:03.967Z,100.00
2023-02-12T23:45:11.252Z,100.00
2023-02-12T23:48:17.702Z,100.00
2023-02-12T23:51:23.722Z,100.00
2023-02-12T23:54:31.819Z,100.00
2023-02-12T23:57:37.901Z,100.00
